sensor_id;sensor_type;location;lat;lon;timestamp;P1;durP1;ratioP1;P2;durP2;ratioP2
58992;SDS011;44782;0.000;0.000;2023-01-19T00:00:42;2.40;;;2.20;;
58992;SDS011;44782;0.000;0.000;2023-01-19T00:02:59;2.70;;;2.20;;
58992;SDS011;44782;0.000;0.000;2023-01-19T00:05:14;2.13;;;2.00;;
58992;SDS011;44782;0.000;0.000;2023-01-19T00:07:31;2.40;;;2.20;;
58992;SDS011;44782;0.000;0.000;2023-01-19T00:09:46;2.40;;;2.20;;
58992;SDS011;44782;0.000;0.000;2023-01-19T00:12:02;2.13;;;1.93;;
58992;SDS011;44782;0.000;0.000;2023-01-19T00:14:19;2.20;;;2.00;;
58992;SDS011;44782;0.000;0.000;2023-01-19T00:16:34;2.30;;;2.10;;
58992;SDS011;44782;0.000;0.000;2023-01-19T00:18:50;2.20;;;2.10;;
58992;SDS011;44782;0.000;0.000;2023-01-19T00:21:07;2.00;;;1.90;;
58992;SDS011;44782;0.000;0.000;2023-01-19T00:23:24;2.20;;;2.10;;
58992;SDS011;44782;0.000;0.000;2023-01-19T00:25:39;2.10;;;1.90;;
58992;SDS011;44782;0.000;0.000;2023-01-19T00:27:58;1.90;;;1.80;;
58992;SDS011;44782;0.000;0.000;2023-01-19T00:30:15;2.10;;;1.90;;
58992;SDS011;44782;0.000;0.000;2023-01-19T00:32:30;2.30;;;2.10;;
58992;SDS011;44782;0.000;0.000;2023-01-19T00:34:46;2.10;;;2.00;;
58992;SDS011;44782;0.000;0.000;2023-01-19T00:37:03;2.27;;;2.07;;
58992;SDS011;44782;0.000;0.000;2023-01-19T00:39:22;2.20;;;2.00;;
58992;SDS011;44782;0.000;0.000;2023-01-19T00:41:38;2.20;;;2.00;;
58992;SDS011;44782;0.000;0.000;2023-01-19T00:44:14;2.30;;;2.10;;
58992;SDS011;44782;0.000;0.000;2023-01-19T00:46:29;2.10;;;2.00;;
58992;SDS011;44782;0.000;0.000;2023-01-19T00:48:45;2.20;;;2.00;;
58992;SDS011;44782;0.000;0.000;2023-01-19T00:51:01;2.07;;;1.90;;
58992;SDS011;44782;0.000;0.000;2023-01-19T00:53:16;1.90;;;1.80;;
58992;SDS011;44782;0.000;0.000;2023-01-19T00:55:32;2.07;;;1.90;;
58992;SDS011;44782;0.000;0.000;2023-01-19T00:57:48;2.17;;;2.00;;
58992;SDS011;44782;0.000;0.000;2023-01-19T01:00:04;1.87;;;1.77;;
58992;SDS011;44782;0.000;0.000;2023-01-19T01:02:25;1.97;;;1.87;;
58992;SDS011;44782;0.000;0.000;2023-01-19T01:04:41;2.00;;;1.80;;
58992;SDS011;44782;0.000;0.000;2023-01-19T01:06:56;2.17;;;2.00;;
58992;SDS011;44782;0.000;0.000;2023-01-19T01:09:12;2.00;;;1.90;;
58992;SDS011;44782;0.000;0.000;2023-01-19T01:11:28;2.23;;;2.03;;
58992;SDS011;44782;0.000;0.000;2023-01-19T01:13:43;2.20;;;2.00;;
58992;SDS011;44782;0.000;0.000;2023-01-19T01:15:59;1.97;;;1.87;;
58992;SDS011;44782;0.000;0.000;2023-01-19T01:18:15;1.70;;;1.60;;
58992;SDS011;44782;0.000;0.000;2023-01-19T01:20:30;2.17;;;1.90;;
58992;SDS011;44782;0.000;0.000;2023-01-19T01:22:49;1.90;;;1.80;;
58992;SDS011;44782;0.000;0.000;2023-01-19T01:25:06;2.00;;;1.90;;
58992;SDS011;44782;0.000;0.000;2023-01-19T01:27:22;1.80;;;1.70;;
58992;SDS011;44782;0.000;0.000;2023-01-19T01:29:38;1.80;;;1.70;;
58992;SDS011;44782;0.000;0.000;2023-01-19T01:31:55;1.93;;;1.83;;
58992;SDS011;44782;0.000;0.000;2023-01-19T01:34:10;2.10;;;1.90;;
58992;SDS011;44782;0.000;0.000;2023-01-19T01:36:26;2.07;;;1.97;;
58992;SDS011;44782;0.000;0.000;2023-01-19T01:38:45;2.00;;;1.90;;
58992;SDS011;44782;0.000;0.000;2023-01-19T01:41:01;2.20;;;2.10;;
58992;SDS011;44782;0.000;0.000;2023-01-19T01:43:17;1.80;;;1.70;;
58992;SDS011;44782;0.000;0.000;2023-01-19T01:45:35;1.90;;;1.80;;
58992;SDS011;44782;0.000;0.000;2023-01-19T01:47:56;1.77;;;1.67;;
58992;SDS011;44782;0.000;0.000;2023-01-19T01:50:26;1.80;;;1.70;;
58992;SDS011;44782;0.000;0.000;2023-01-19T01:52:54;2.20;;;2.00;;
58992;SDS011;44782;0.000;0.000;2023-01-19T01:55:21;1.90;;;1.80;;
58992;SDS011;44782;0.000;0.000;2023-01-19T01:57:40;2.27;;;2.00;;
58992;SDS011;44782;0.000;0.000;2023-01-19T01:59:58;1.93;;;1.83;;
58992;SDS011;44782;0.000;0.000;2023-01-19T02:02:17;1.60;;;1.50;;
58992;SDS011;44782;0.000;0.000;2023-01-19T02:04:57;1.70;;;1.60;;
58992;SDS011;44782;0.000;0.000;2023-01-19T02:09:46;1.97;;;1.77;;
58992;SDS011;44782;0.000;0.000;2023-01-19T02:12:21;2.17;;;1.80;;
58992;SDS011;44782;0.000;0.000;2023-01-19T02:14:55;2.00;;;1.90;;
58992;SDS011;44782;0.000;0.000;2023-01-19T02:17:11;1.80;;;1.70;;
58992;SDS011;44782;0.000;0.000;2023-01-19T02:19:29;1.97;;;1.87;;
58992;SDS011;44782;0.000;0.000;2023-01-19T02:21:54;1.57;;;1.47;;
58992;SDS011;44782;0.000;0.000;2023-01-19T02:24:15;1.90;;;1.80;;
58992;SDS011;44782;0.000;0.000;2023-01-19T02:26:37;2.10;;;1.90;;
58992;SDS011;44782;0.000;0.000;2023-01-19T02:31:18;2.03;;;1.93;;
58992;SDS011;44782;0.000;0.000;2023-01-19T02:33:34;2.00;;;1.90;;
58992;SDS011;44782;0.000;0.000;2023-01-19T02:35:51;1.97;;;1.77;;
58992;SDS011;44782;0.000;0.000;2023-01-19T02:38:09;2.10;;;1.90;;
58992;SDS011;44782;0.000;0.000;2023-01-19T02:40:27;2.17;;;2.00;;
58992;SDS011;44782;0.000;0.000;2023-01-19T02:42:44;1.87;;;1.77;;
58992;SDS011;44782;0.000;0.000;2023-01-19T02:45:04;2.07;;;1.90;;
58992;SDS011;44782;0.000;0.000;2023-01-19T02:47:23;2.40;;;2.20;;
58992;SDS011;44782;0.000;0.000;2023-01-19T02:49:39;2.00;;;1.90;;
58992;SDS011;44782;0.000;0.000;2023-01-19T02:51:55;2.10;;;2.00;;
58992;SDS011;44782;0.000;0.000;2023-01-19T02:54:13;2.23;;;2.03;;
58992;SDS011;44782;0.000;0.000;2023-01-19T03:06:49;1.83;;;1.73;;
58992;SDS011;44782;0.000;0.000;2023-01-19T03:11:49;2.10;;;2.00;;
58992;SDS011;44782;0.000;0.000;2023-01-19T03:14:11;2.40;;;2.17;;
58992;SDS011;44782;0.000;0.000;2023-01-19T03:16:40;2.03;;;1.93;;
58992;SDS011;44782;0.000;0.000;2023-01-19T03:19:03;2.23;;;2.03;;
58992;SDS011;44782;0.000;0.000;2023-01-19T03:21:21;2.40;;;2.20;;
58992;SDS011;44782;0.000;0.000;2023-01-19T03:23:41;2.50;;;2.30;;
58992;SDS011;44782;0.000;0.000;2023-01-19T03:26:00;2.07;;;1.93;;
58992;SDS011;44782;0.000;0.000;2023-01-19T03:28:19;2.10;;;2.00;;
58992;SDS011;44782;0.000;0.000;2023-01-19T03:30:41;2.27;;;2.07;;
58992;SDS011;44782;0.000;0.000;2023-01-19T03:33:04;2.30;;;2.20;;
58992;SDS011;44782;0.000;0.000;2023-01-19T03:35:43;2.37;;;2.17;;
58992;SDS011;44782;0.000;0.000;2023-01-19T03:38:04;2.27;;;2.07;;
58992;SDS011;44782;0.000;0.000;2023-01-19T03:40:28;2.37;;;2.17;;
58992;SDS011;44782;0.000;0.000;2023-01-19T03:42:45;2.27;;;2.13;;
58992;SDS011;44782;0.000;0.000;2023-01-19T03:45:03;2.43;;;2.23;;
58992;SDS011;44782;0.000;0.000;2023-01-19T03:47:20;2.40;;;2.20;;
58992;SDS011;44782;0.000;0.000;2023-01-19T03:49:39;2.43;;;2.23;;
58992;SDS011;44782;0.000;0.000;2023-01-19T03:51:57;2.10;;;2.00;;
58992;SDS011;44782;0.000;0.000;2023-01-19T03:54:14;2.50;;;2.30;;
58992;SDS011;44782;0.000;0.000;2023-01-19T03:56:29;2.67;;;2.47;;
58992;SDS011;44782;0.000;0.000;2023-01-19T03:58:45;2.50;;;2.30;;
58992;SDS011;44782;0.000;0.000;2023-01-19T04:01:01;2.43;;;2.20;;
58992;SDS011;44782;0.000;0.000;2023-01-19T04:03:18;2.77;;;2.57;;
58992;SDS011;44782;0.000;0.000;2023-01-19T04:05:34;2.40;;;2.20;;
58992;SDS011;44782;0.000;0.000;2023-01-19T04:07:52;2.70;;;2.50;;
58992;SDS011;44782;0.000;0.000;2023-01-19T04:10:08;2.50;;;2.30;;
58992;SDS011;44782;0.000;0.000;2023-01-19T04:12:26;2.60;;;2.40;;
58992;SDS011;44782;0.000;0.000;2023-01-19T04:14:42;2.30;;;2.10;;
58992;SDS011;44782;0.000;0.000;2023-01-19T04:16:57;2.70;;;2.50;;
58992;SDS011;44782;0.000;0.000;2023-01-19T04:19:13;2.80;;;2.60;;
58992;SDS011;44782;0.000;0.000;2023-01-19T04:21:29;2.73;;;2.53;;
58992;SDS011;44782;0.000;0.000;2023-01-19T04:23:45;2.67;;;2.47;;
58992;SDS011;44782;0.000;0.000;2023-01-19T04:26:02;2.90;;;2.70;;
58992;SDS011;44782;0.000;0.000;2023-01-19T04:28:18;3.00;;;2.80;;
58992;SDS011;44782;0.000;0.000;2023-01-19T04:30:34;3.00;;;2.80;;
58992;SDS011;44782;0.000;0.000;2023-01-19T04:32:50;2.87;;;2.67;;
58992;SDS011;44782;0.000;0.000;2023-01-19T04:35:06;3.03;;;2.83;;
58992;SDS011;44782;0.000;0.000;2023-01-19T04:37:21;3.10;;;2.90;;
58992;SDS011;44782;0.000;0.000;2023-01-19T04:39:37;3.10;;;2.87;;
58992;SDS011;44782;0.000;0.000;2023-01-19T04:41:53;3.10;;;2.80;;
58992;SDS011;44782;0.000;0.000;2023-01-19T04:44:10;2.87;;;2.67;;
58992;SDS011;44782;0.000;0.000;2023-01-19T04:46:25;2.90;;;2.70;;
58992;SDS011;44782;0.000;0.000;2023-01-19T04:48:41;3.10;;;2.90;;
58992;SDS011;44782;0.000;0.000;2023-01-19T04:50:57;3.20;;;3.00;;
58992;SDS011;44782;0.000;0.000;2023-01-19T04:53:12;3.00;;;2.80;;
58992;SDS011;44782;0.000;0.000;2023-01-19T04:55:30;3.00;;;2.80;;
58992;SDS011;44782;0.000;0.000;2023-01-19T04:57:45;2.90;;;2.70;;
58992;SDS011;44782;0.000;0.000;2023-01-19T05:00:01;2.97;;;2.77;;
58992;SDS011;44782;0.000;0.000;2023-01-19T05:02:20;3.40;;;3.10;;
58992;SDS011;44782;0.000;0.000;2023-01-19T05:04:36;3.00;;;2.80;;
58992;SDS011;44782;0.000;0.000;2023-01-19T05:06:52;2.90;;;2.70;;
58992;SDS011;44782;0.000;0.000;2023-01-19T05:09:08;3.07;;;2.87;;
58992;SDS011;44782;0.000;0.000;2023-01-19T05:11:27;3.33;;;3.03;;
58992;SDS011;44782;0.000;0.000;2023-01-19T05:13:42;2.97;;;2.77;;
58992;SDS011;44782;0.000;0.000;2023-01-19T05:15:58;3.37;;;3.07;;
58992;SDS011;44782;0.000;0.000;2023-01-19T05:18:14;3.00;;;2.80;;
58992;SDS011;44782;0.000;0.000;2023-01-19T05:20:30;3.40;;;3.10;;
58992;SDS011;44782;0.000;0.000;2023-01-19T05:22:49;3.40;;;3.10;;
58992;SDS011;44782;0.000;0.000;2023-01-19T05:25:06;3.43;;;3.13;;
58992;SDS011;44782;0.000;0.000;2023-01-19T05:27:25;3.20;;;2.90;;
58992;SDS011;44782;0.000;0.000;2023-01-19T05:29:41;3.10;;;2.90;;
58992;SDS011;44782;0.000;0.000;2023-01-19T05:31:56;3.30;;;3.00;;
58992;SDS011;44782;0.000;0.000;2023-01-19T05:34:12;3.23;;;3.03;;
58992;SDS011;44782;0.000;0.000;2023-01-19T05:36:28;3.23;;;3.00;;
58992;SDS011;44782;0.000;0.000;2023-01-19T05:38:44;3.10;;;2.90;;
58992;SDS011;44782;0.000;0.000;2023-01-19T05:41:00;3.03;;;2.83;;
58992;SDS011;44782;0.000;0.000;2023-01-19T05:43:16;3.47;;;3.17;;
58992;SDS011;44782;0.000;0.000;2023-01-19T05:45:32;3.37;;;3.07;;
58992;SDS011;44782;0.000;0.000;2023-01-19T05:47:48;3.70;;;3.40;;
58992;SDS011;44782;0.000;0.000;2023-01-19T05:50:04;3.30;;;3.10;;
58992;SDS011;44782;0.000;0.000;2023-01-19T05:52:20;3.30;;;3.10;;
58992;SDS011;44782;0.000;0.000;2023-01-19T05:54:36;3.27;;;2.97;;
58992;SDS011;44782;0.000;0.000;2023-01-19T05:56:54;3.10;;;2.83;;
58992;SDS011;44782;0.000;0.000;2023-01-19T05:59:10;4.77;;;3.30;;
58992;SDS011;44782;0.000;0.000;2023-01-19T06:01:25;3.47;;;3.17;;
58992;SDS011;44782;0.000;0.000;2023-01-19T06:03:42;3.00;;;2.80;;
58992;SDS011;44782;0.000;0.000;2023-01-19T06:05:58;3.20;;;3.00;;
58992;SDS011;44782;0.000;0.000;2023-01-19T06:08:14;3.37;;;3.07;;
58992;SDS011;44782;0.000;0.000;2023-01-19T06:10:29;3.50;;;3.20;;
58992;SDS011;44782;0.000;0.000;2023-01-19T06:12:45;3.50;;;3.20;;
58992;SDS011;44782;0.000;0.000;2023-01-19T06:15:01;3.77;;;3.47;;
58992;SDS011;44782;0.000;0.000;2023-01-19T06:17:18;3.00;;;2.80;;
58992;SDS011;44782;0.000;0.000;2023-01-19T06:19:34;3.53;;;3.23;;
58992;SDS011;44782;0.000;0.000;2023-01-19T06:21:50;3.57;;;3.27;;
58992;SDS011;44782;0.000;0.000;2023-01-19T06:24:06;3.40;;;3.10;;
58992;SDS011;44782;0.000;0.000;2023-01-19T06:26:22;3.40;;;3.20;;
58992;SDS011;44782;0.000;0.000;2023-01-19T06:28:37;3.40;;;3.10;;
58992;SDS011;44782;0.000;0.000;2023-01-19T06:30:54;3.67;;;3.37;;
58992;SDS011;44782;0.000;0.000;2023-01-19T06:33:10;3.20;;;3.00;;
58992;SDS011;44782;0.000;0.000;2023-01-19T06:35:25;3.47;;;3.17;;
58992;SDS011;44782;0.000;0.000;2023-01-19T06:37:41;3.40;;;3.10;;
58992;SDS011;44782;0.000;0.000;2023-01-19T06:39:57;3.63;;;3.33;;
58992;SDS011;44782;0.000;0.000;2023-01-19T06:42:12;3.60;;;3.30;;
58992;SDS011;44782;0.000;0.000;2023-01-19T06:44:28;3.63;;;3.33;;
58992;SDS011;44782;0.000;0.000;2023-01-19T06:46:43;3.50;;;3.20;;
58992;SDS011;44782;0.000;0.000;2023-01-19T06:48:59;3.40;;;3.10;;
58992;SDS011;44782;0.000;0.000;2023-01-19T06:51:15;3.30;;;3.10;;
58992;SDS011;44782;0.000;0.000;2023-01-19T06:53:30;3.40;;;3.20;;
58992;SDS011;44782;0.000;0.000;2023-01-19T06:55:46;3.70;;;3.40;;
58992;SDS011;44782;0.000;0.000;2023-01-19T06:58:02;3.63;;;3.33;;
58992;SDS011;44782;0.000;0.000;2023-01-19T07:00:18;3.80;;;3.50;;
58992;SDS011;44782;0.000;0.000;2023-01-19T07:02:34;3.50;;;3.20;;
58992;SDS011;44782;0.000;0.000;2023-01-19T07:04:50;3.50;;;3.20;;
58992;SDS011;44782;0.000;0.000;2023-01-19T07:07:09;3.47;;;3.17;;
58992;SDS011;44782;0.000;0.000;2023-01-19T07:09:24;3.30;;;3.07;;
58992;SDS011;44782;0.000;0.000;2023-01-19T07:11:40;3.47;;;3.17;;
58992;SDS011;44782;0.000;0.000;2023-01-19T07:13:56;3.53;;;3.23;;
58992;SDS011;44782;0.000;0.000;2023-01-19T07:16:11;3.80;;;3.50;;
58992;SDS011;44782;0.000;0.000;2023-01-19T07:18:27;3.67;;;3.37;;
58992;SDS011;44782;0.000;0.000;2023-01-19T07:20:43;3.60;;;3.27;;
58992;SDS011;44782;0.000;0.000;2023-01-19T07:23:00;4.00;;;3.60;;
58992;SDS011;44782;0.000;0.000;2023-01-19T07:25:16;3.70;;;3.40;;
58992;SDS011;44782;0.000;0.000;2023-01-19T07:27:32;3.47;;;3.20;;
58992;SDS011;44782;0.000;0.000;2023-01-19T07:29:48;3.57;;;3.20;;
58992;SDS011;44782;0.000;0.000;2023-01-19T07:32:03;3.80;;;3.50;;
58992;SDS011;44782;0.000;0.000;2023-01-19T07:34:20;4.00;;;3.70;;
58992;SDS011;44782;0.000;0.000;2023-01-19T07:36:36;3.77;;;3.47;;
58992;SDS011;44782;0.000;0.000;2023-01-19T07:38:51;3.60;;;3.30;;
58992;SDS011;44782;0.000;0.000;2023-01-19T07:41:08;3.63;;;3.33;;
58992;SDS011;44782;0.000;0.000;2023-01-19T07:43:24;3.50;;;3.20;;
58992;SDS011;44782;0.000;0.000;2023-01-19T07:45:39;3.73;;;3.43;;
58992;SDS011;44782;0.000;0.000;2023-01-19T07:47:55;3.60;;;3.30;;
58992;SDS011;44782;0.000;0.000;2023-01-19T07:50:11;3.67;;;3.37;;
58992;SDS011;44782;0.000;0.000;2023-01-19T07:52:27;3.73;;;3.43;;
58992;SDS011;44782;0.000;0.000;2023-01-19T07:54:43;3.70;;;3.40;;
58992;SDS011;44782;0.000;0.000;2023-01-19T07:56:59;3.60;;;3.30;;
58992;SDS011;44782;0.000;0.000;2023-01-19T07:59:14;3.47;;;3.27;;
58992;SDS011;44782;0.000;0.000;2023-01-19T08:01:30;3.57;;;3.27;;
58992;SDS011;44782;0.000;0.000;2023-01-19T08:03:49;3.50;;;3.20;;
58992;SDS011;44782;0.000;0.000;2023-01-19T08:06:05;3.60;;;3.30;;
58992;SDS011;44782;0.000;0.000;2023-01-19T08:08:21;4.20;;;3.90;;
58992;SDS011;44782;0.000;0.000;2023-01-19T08:10:37;3.73;;;3.43;;
58992;SDS011;44782;0.000;0.000;2023-01-19T08:12:53;3.63;;;3.33;;
58992;SDS011;44782;0.000;0.000;2023-01-19T08:15:09;4.53;;;3.47;;
58992;SDS011;44782;0.000;0.000;2023-01-19T08:17:25;3.50;;;3.20;;
58992;SDS011;44782;0.000;0.000;2023-01-19T08:19:41;3.33;;;3.13;;
58992;SDS011;44782;0.000;0.000;2023-01-19T08:21:57;3.77;;;3.47;;
58992;SDS011;44782;0.000;0.000;2023-01-19T08:24:17;3.87;;;3.57;;
58992;SDS011;44782;0.000;0.000;2023-01-19T08:26:35;3.80;;;3.50;;
58992;SDS011;44782;0.000;0.000;2023-01-19T08:28:51;3.43;;;3.13;;
58992;SDS011;44782;0.000;0.000;2023-01-19T08:31:06;3.77;;;3.47;;
58992;SDS011;44782;0.000;0.000;2023-01-19T08:33:22;3.43;;;3.13;;
58992;SDS011;44782;0.000;0.000;2023-01-19T08:35:39;3.83;;;3.53;;
58992;SDS011;44782;0.000;0.000;2023-01-19T08:37:56;3.93;;;3.63;;
58992;SDS011;44782;0.000;0.000;2023-01-19T08:40:15;3.90;;;3.60;;
58992;SDS011;44782;0.000;0.000;2023-01-19T08:42:32;3.33;;;3.13;;
58992;SDS011;44782;0.000;0.000;2023-01-19T08:44:47;3.80;;;3.50;;
58992;SDS011;44782;0.000;0.000;2023-01-19T08:47:03;3.73;;;3.43;;
58992;SDS011;44782;0.000;0.000;2023-01-19T08:49:19;4.13;;;3.73;;
58992;SDS011;44782;0.000;0.000;2023-01-19T08:51:34;3.37;;;3.07;;
58992;SDS011;44782;0.000;0.000;2023-01-19T08:53:50;3.80;;;3.50;;
58992;SDS011;44782;0.000;0.000;2023-01-19T08:56:06;3.37;;;3.07;;
58992;SDS011;44782;0.000;0.000;2023-01-19T08:58:26;3.70;;;3.40;;
58992;SDS011;44782;0.000;0.000;2023-01-19T09:00:42;4.00;;;3.30;;
58992;SDS011;44782;0.000;0.000;2023-01-19T09:02:58;3.80;;;3.50;;
58992;SDS011;44782;0.000;0.000;2023-01-19T09:05:15;3.60;;;3.30;;
58992;SDS011;44782;0.000;0.000;2023-01-19T09:07:31;3.70;;;3.40;;
58992;SDS011;44782;0.000;0.000;2023-01-19T09:09:47;3.90;;;3.60;;
58992;SDS011;44782;0.000;0.000;2023-01-19T09:12:02;4.67;;;3.87;;
58992;SDS011;44782;0.000;0.000;2023-01-19T09:14:18;3.70;;;3.40;;
58992;SDS011;44782;0.000;0.000;2023-01-19T09:16:34;3.60;;;3.30;;
58992;SDS011;44782;0.000;0.000;2023-01-19T09:18:49;3.70;;;3.40;;
58992;SDS011;44782;0.000;0.000;2023-01-19T09:21:05;3.70;;;3.40;;
58992;SDS011;44782;0.000;0.000;2023-01-19T09:23:22;3.93;;;3.63;;
58992;SDS011;44782;0.000;0.000;2023-01-19T09:25:38;3.33;;;3.03;;
58992;SDS011;44782;0.000;0.000;2023-01-19T09:27:54;3.60;;;3.30;;
58992;SDS011;44782;0.000;0.000;2023-01-19T09:30:10;3.60;;;3.30;;
58992;SDS011;44782;0.000;0.000;2023-01-19T09:32:26;3.60;;;3.30;;
58992;SDS011;44782;0.000;0.000;2023-01-19T09:34:42;3.40;;;3.10;;
58992;SDS011;44782;0.000;0.000;2023-01-19T09:36:57;3.93;;;3.50;;
58992;SDS011;44782;0.000;0.000;2023-01-19T09:39:13;3.60;;;3.30;;
58992;SDS011;44782;0.000;0.000;2023-01-19T09:41:29;15.00;;;5.20;;
58992;SDS011;44782;0.000;0.000;2023-01-19T09:43:55;10.43;;;5.13;;
58992;SDS011;44782;0.000;0.000;2023-01-19T09:46:21;22.57;;;6.17;;
58992;SDS011;44782;0.000;0.000;2023-01-19T09:48:54;9.53;;;4.53;;
58992;SDS011;44782;0.000;0.000;2023-01-19T09:51:14;9.10;;;4.83;;
58992;SDS011;44782;0.000;0.000;2023-01-19T09:56:18;11.87;;;4.60;;
58992;SDS011;44782;0.000;0.000;2023-01-19T09:58:35;8.70;;;4.50;;
58992;SDS011;44782;0.000;0.000;2023-01-19T10:00:52;7.53;;;4.20;;
58992;SDS011;44782;0.000;0.000;2023-01-19T10:03:16;10.90;;;4.90;;
58992;SDS011;44782;0.000;0.000;2023-01-19T10:05:41;12.40;;;5.10;;
58992;SDS011;44782;0.000;0.000;2023-01-19T10:10:30;12.33;;;4.80;;
58992;SDS011;44782;0.000;0.000;2023-01-19T10:12:48;10.77;;;4.80;;
58992;SDS011;44782;0.000;0.000;2023-01-19T10:15:36;13.10;;;5.03;;
58992;SDS011;44782;0.000;0.000;2023-01-19T10:20:35;12.50;;;4.67;;
58992;SDS011;44782;0.000;0.000;2023-01-19T10:22:55;10.77;;;4.90;;
58992;SDS011;44782;0.000;0.000;2023-01-19T10:25:19;11.73;;;5.07;;
58992;SDS011;44782;0.000;0.000;2023-01-19T10:27:38;8.67;;;4.10;;
58992;SDS011;44782;0.000;0.000;2023-01-19T10:29:54;7.03;;;4.00;;
58992;SDS011;44782;0.000;0.000;2023-01-19T10:34:31;7.00;;;4.17;;
58992;SDS011;44782;0.000;0.000;2023-01-19T10:36:47;8.80;;;4.73;;
58992;SDS011;44782;0.000;0.000;2023-01-19T10:39:04;8.63;;;4.20;;
58992;SDS011;44782;0.000;0.000;2023-01-19T10:41:54;9.90;;;4.23;;
58992;SDS011;44782;0.000;0.000;2023-01-19T10:44:04;12.43;;;5.07;;
58992;SDS011;44782;0.000;0.000;2023-01-19T10:46:42;11.70;;;5.27;;
58992;SDS011;44782;0.000;0.000;2023-01-19T10:48:59;9.60;;;4.70;;
58992;SDS011;44782;0.000;0.000;2023-01-19T10:51:15;12.57;;;5.17;;
58992;SDS011;44782;0.000;0.000;2023-01-19T10:53:31;10.23;;;4.60;;
58992;SDS011;44782;0.000;0.000;2023-01-19T10:55:47;12.00;;;5.13;;
58992;SDS011;44782;0.000;0.000;2023-01-19T10:58:28;7.97;;;4.60;;
58992;SDS011;44782;0.000;0.000;2023-01-19T11:00:45;9.00;;;4.80;;
58992;SDS011;44782;0.000;0.000;2023-01-19T11:03:00;8.67;;;4.80;;
58992;SDS011;44782;0.000;0.000;2023-01-19T11:05:21;8.80;;;4.63;;
58992;SDS011;44782;0.000;0.000;2023-01-19T11:07:42;9.47;;;4.77;;
58992;SDS011;44782;0.000;0.000;2023-01-19T11:10:19;10.77;;;4.93;;
58992;SDS011;44782;0.000;0.000;2023-01-19T11:12:38;8.77;;;4.90;;
58992;SDS011;44782;0.000;0.000;2023-01-19T11:14:55;8.67;;;5.03;;
58992;SDS011;44782;0.000;0.000;2023-01-19T11:17:21;10.90;;;5.17;;
58992;SDS011;44782;0.000;0.000;2023-01-19T11:19:39;6.63;;;4.90;;
58992;SDS011;44782;0.000;0.000;2023-01-19T11:22:14;8.43;;;4.60;;
58992;SDS011;44782;0.000;0.000;2023-01-19T11:24:36;8.23;;;4.73;;
58992;SDS011;44782;0.000;0.000;2023-01-19T11:26:54;7.33;;;4.50;;
58992;SDS011;44782;0.000;0.000;2023-01-19T11:31:35;6.57;;;4.60;;
58992;SDS011;44782;0.000;0.000;2023-01-19T11:33:51;6.00;;;4.23;;
58992;SDS011;44782;0.000;0.000;2023-01-19T11:36:19;7.47;;;4.80;;
58992;SDS011;44782;0.000;0.000;2023-01-19T11:38:39;7.27;;;4.53;;
58992;SDS011;44782;0.000;0.000;2023-01-19T11:40:57;8.03;;;5.13;;
58992;SDS011;44782;0.000;0.000;2023-01-19T11:43:15;8.23;;;5.00;;
58992;SDS011;44782;0.000;0.000;2023-01-19T11:45:31;6.97;;;4.93;;
58992;SDS011;44782;0.000;0.000;2023-01-19T11:47:48;6.43;;;4.60;;
58992;SDS011;44782;0.000;0.000;2023-01-19T11:55:35;7.67;;;4.93;;
58992;SDS011;44782;0.000;0.000;2023-01-19T11:57:55;6.67;;;4.77;;
58992;SDS011;44782;0.000;0.000;2023-01-19T12:00:18;6.70;;;4.60;;
58992;SDS011;44782;0.000;0.000;2023-01-19T12:02:43;8.50;;;4.97;;
58992;SDS011;44782;0.000;0.000;2023-01-19T12:05:03;7.87;;;4.60;;
58992;SDS011;44782;0.000;0.000;2023-01-19T12:07:24;5.87;;;4.73;;
58992;SDS011;44782;0.000;0.000;2023-01-19T12:09:45;8.63;;;4.97;;
58992;SDS011;44782;0.000;0.000;2023-01-19T12:12:06;7.83;;;4.60;;
58992;SDS011;44782;0.000;0.000;2023-01-19T12:14:40;7.07;;;4.80;;
58992;SDS011;44782;0.000;0.000;2023-01-19T12:17:07;8.63;;;5.03;;
58992;SDS011;44782;0.000;0.000;2023-01-19T12:22:19;7.13;;;4.73;;
58992;SDS011;44782;0.000;0.000;2023-01-19T12:24:39;6.93;;;4.40;;
58992;SDS011;44782;0.000;0.000;2023-01-19T12:27:54;5.57;;;4.03;;
58992;SDS011;44782;0.000;0.000;2023-01-19T12:29:54;6.87;;;4.80;;
58992;SDS011;44782;0.000;0.000;2023-01-19T12:34:43;5.20;;;4.70;;
58992;SDS011;44782;0.000;0.000;2023-01-19T12:37:02;4.70;;;4.20;;
58992;SDS011;44782;0.000;0.000;2023-01-19T12:39:20;5.10;;;4.60;;
58992;SDS011;44782;0.000;0.000;2023-01-19T12:41:36;8.37;;;4.37;;
58992;SDS011;44782;0.000;0.000;2023-01-19T12:46:29;6.23;;;4.50;;
58992;SDS011;44782;0.000;0.000;2023-01-19T12:48:45;8.13;;;5.27;;
58992;SDS011;44782;0.000;0.000;2023-01-19T12:51:01;9.37;;;4.97;;
58992;SDS011;44782;0.000;0.000;2023-01-19T12:53:18;6.57;;;4.87;;
58992;SDS011;44782;0.000;0.000;2023-01-19T12:55:35;7.20;;;4.57;;
58992;SDS011;44782;0.000;0.000;2023-01-19T13:02:42;7.47;;;4.80;;
58992;SDS011;44782;0.000;0.000;2023-01-19T13:05:16;6.80;;;4.57;;
58992;SDS011;44782;0.000;0.000;2023-01-19T13:08:18;7.77;;;4.70;;
58992;SDS011;44782;0.000;0.000;2023-01-19T13:13:17;6.10;;;4.63;;
58992;SDS011;44782;0.000;0.000;2023-01-19T13:15:33;8.57;;;4.93;;
58992;SDS011;44782;0.000;0.000;2023-01-19T13:17:50;9.17;;;5.07;;
58992;SDS011;44782;0.000;0.000;2023-01-19T13:20:27;8.47;;;4.70;;
58992;SDS011;44782;0.000;0.000;2023-01-19T13:25:32;6.60;;;5.00;;
58992;SDS011;44782;0.000;0.000;2023-01-19T13:27:49;7.07;;;4.30;;
58992;SDS011;44782;0.000;0.000;2023-01-19T13:30:09;5.93;;;4.40;;
58992;SDS011;44782;0.000;0.000;2023-01-19T13:32:26;8.30;;;4.90;;
58992;SDS011;44782;0.000;0.000;2023-01-19T13:34:43;6.80;;;4.40;;
58992;SDS011;44782;0.000;0.000;2023-01-19T13:37:01;7.90;;;4.43;;
58992;SDS011;44782;0.000;0.000;2023-01-19T13:39:28;6.50;;;4.53;;
58992;SDS011;44782;0.000;0.000;2023-01-19T13:41:53;7.27;;;4.50;;
58992;SDS011;44782;0.000;0.000;2023-01-19T13:44:19;8.37;;;4.60;;
58992;SDS011;44782;0.000;0.000;2023-01-19T13:46:39;9.13;;;4.50;;
58992;SDS011;44782;0.000;0.000;2023-01-19T13:49:37;5.27;;;4.00;;
58992;SDS011;44782;0.000;0.000;2023-01-19T13:51:33;5.43;;;4.23;;
58992;SDS011;44782;0.000;0.000;2023-01-19T13:53:53;6.53;;;4.30;;
58992;SDS011;44782;0.000;0.000;2023-01-19T13:56:17;5.63;;;4.50;;
58992;SDS011;44782;0.000;0.000;2023-01-19T13:58:35;5.50;;;4.33;;
58992;SDS011;44782;0.000;0.000;2023-01-19T14:00:54;6.43;;;4.50;;
58992;SDS011;44782;0.000;0.000;2023-01-19T14:05:32;4.97;;;4.20;;
58992;SDS011;44782;0.000;0.000;2023-01-19T14:07:58;5.90;;;4.47;;
58992;SDS011;44782;0.000;0.000;2023-01-19T14:10:26;4.60;;;3.87;;
58992;SDS011;44782;0.000;0.000;2023-01-19T14:12:42;4.43;;;4.03;;
58992;SDS011;44782;0.000;0.000;2023-01-19T14:14:59;5.60;;;4.10;;
58992;SDS011;44782;0.000;0.000;2023-01-19T14:17:22;4.70;;;4.17;;
58992;SDS011;44782;0.000;0.000;2023-01-19T14:19:58;4.87;;;4.37;;
58992;SDS011;44782;0.000;0.000;2023-01-19T14:22:19;4.43;;;3.90;;
58992;SDS011;44782;0.000;0.000;2023-01-19T14:24:35;5.43;;;4.13;;
58992;SDS011;44782;0.000;0.000;2023-01-19T14:31:24;5.00;;;4.03;;
58992;SDS011;44782;0.000;0.000;2023-01-19T14:33:42;5.27;;;4.20;;
58992;SDS011;44782;0.000;0.000;2023-01-19T14:36:07;5.47;;;4.00;;
58992;SDS011;44782;0.000;0.000;2023-01-19T14:38:24;5.63;;;4.13;;
58992;SDS011;44782;0.000;0.000;2023-01-19T14:40:39;4.50;;;3.83;;
58992;SDS011;44782;0.000;0.000;2023-01-19T14:42:56;4.70;;;4.00;;
58992;SDS011;44782;0.000;0.000;2023-01-19T14:45:22;4.73;;;4.00;;
58992;SDS011;44782;0.000;0.000;2023-01-19T14:47:39;4.30;;;3.83;;
58992;SDS011;44782;0.000;0.000;2023-01-19T14:49:57;4.50;;;4.00;;
58992;SDS011;44782;0.000;0.000;2023-01-19T14:52:19;6.13;;;4.00;;
58992;SDS011;44782;0.000;0.000;2023-01-19T14:54:41;5.57;;;4.23;;
58992;SDS011;44782;0.000;0.000;2023-01-19T14:56:59;4.90;;;3.83;;
58992;SDS011;44782;0.000;0.000;2023-01-19T14:59:15;5.13;;;4.30;;
58992;SDS011;44782;0.000;0.000;2023-01-19T15:01:31;3.97;;;3.50;;
58992;SDS011;44782;0.000;0.000;2023-01-19T15:03:46;4.57;;;4.00;;
58992;SDS011;44782;0.000;0.000;2023-01-19T15:06:02;5.27;;;4.17;;
58992;SDS011;44782;0.000;0.000;2023-01-19T15:08:23;4.50;;;4.10;;